Time;durP1;ratioP1;P1;durP2;ratioP2;P2;SDS_P1;SDS_P2;PMS_P1;PMS_P2;Temp;Humidity;BMP_temperature;BMP_pressure;BME280_temperature;BME280_humidity;BME280_pressure;Samples;Min_cycle;Max_cycle;Signal;HPM_P1;HPM_P2
2022/12/29 00:02:03;;;;;;;5.67;1.70;;;14.20;95.50;;;;;;5099600;28;20643;-96
2022/12/29 00:04:32;;;;;;;5.03;1.60;;;14.20;95.50;;;;;;5094381;28;20264;-95
2022/12/29 00:07:04;;;;;;;6.17;1.93;;;14.20;95.60;;;;;;5092653;28;20210;-96
2022/12/29 00:09:37;;;;;;;3.73;1.63;;;14.20;95.60;;;;;;5080603;28;20222;-96
2022/12/29 00:12:10;;;;;;;8.77;2.77;;;14.10;95.50;;;;;;5100174;28;20554;-96
2022/12/29 00:17:25;;;;;;;5.77;2.00;;;14.10;95.60;;;;;;5102230;28;20284;-96
2022/12/29 00:36:56;;;;;;;5.80;1.43;;;14.20;95.00;;;;;;5090393;28;20230;-95
2022/12/29 00:45:19;;;;;;;10.00;2.03;;;14.10;94.20;;;;;;5034627;28;20193;-95
2022/12/29 00:47:50;;;;;;;5.77;1.73;;;14.10;94.00;;;;;;5092067;28;20214;-96
2022/12/29 00:50:23;;;;;;;3.80;1.37;;;14.20;94.00;;;;;;5086231;28;20359;-96
2022/12/29 00:52:55;;;;;;;4.20;1.30;;;14.10;93.90;;;;;;5095519;28;20229;-96
2022/12/29 00:55:27;;;;;;;6.23;1.93;;;14.20;94.10;;;;;;5103379;28;20264;-96
2022/12/29 00:58:09;;;;;;;4.23;1.43;;;14.20;94.20;;;;;;5091768;28;20729;-96
2022/12/29 01:00:40;;;;;;;5.97;1.87;;;14.20;94.10;;;;;;5087008;28;20739;-96
2022/12/29 01:03:11;;;;;;;7.93;2.30;;;14.20;94.10;;;;;;5100555;28;20207;-95
2022/12/29 01:05:39;;;;;;;6.83;2.10;;;14.10;94.20;;;;;;5095479;28;20213;-96
2022/12/29 01:08:09;;;;;;;9.40;2.30;;;14.20;94.40;;;;;;5085254;28;20207;-96
2022/12/29 01:10:38;;;;;;;8.40;2.63;;;14.10;94.30;;;;;;5094436;28;20322;-96
2022/12/29 01:13:05;;;;;;;6.23;3.03;;;14.10;94.30;;;;;;5098350;28;20228;-96
2022/12/29 01:15:32;;;;;;;4.33;1.50;;;14.10;94.30;;;;;;5098237;28;20222;-95
2022/12/29 01:18:07;;;;;;;3.93;1.43;;;14.10;94.20;;;;;;5087976;28;20221;-96
2022/12/29 01:20:40;;;;;;;4.93;1.60;;;14.10;94.00;;;;;;5100730;28;20202;-95
2022/12/29 01:23:31;;;;;;;4.03;0.90;;;14.10;94.00;;;;;;5092949;28;20234;-95
2022/12/29 01:26:12;;;;;;;5.83;1.57;;;14.00;93.70;;;;;;5097297;28;20213;-95
2022/12/29 01:28:53;;;;;;;4.10;1.20;;;14.00;93.40;;;;;;5082618;28;20730;-96
2022/12/29 01:31:25;;;;;;;5.80;1.70;;;13.90;93.50;;;;;;5079263;28;20226;-94
2022/12/29 01:34:16;;;;;;;5.80;1.37;;;13.90;93.60;;;;;;5079277;28;20218;-96
2022/12/29 01:37:00;;;;;;;2.47;1.00;;;13.80;93.50;;;;;;5079136;28;20249;-96
2022/12/29 01:39:37;;;;;;;5.27;1.67;;;13.80;93.60;;;;;;5078182;28;20229;-96
2022/12/29 01:42:08;;;;;;;8.47;2.50;;;13.70;93.60;;;;;;5083174;28;20210;-96
2022/12/29 01:44:55;;;;;;;4.77;1.53;;;13.70;93.90;;;;;;5096313;28;20201;-94
2022/12/29 01:47:42;;;;;;;5.53;1.50;;;13.70;93.90;;;;;;5082701;28;20650;-95
2022/12/29 01:50:26;;;;;;;4.50;1.23;;;13.70;94.10;;;;;;5098857;28;20217;-96
2022/12/29 01:53:31;;;;;;;5.80;1.30;;;13.60;94.10;;;;;;5096811;28;20225;-96
2022/12/29 01:56:04;;;;;;;6.83;1.93;;;13.60;94.10;;;;;;5091140;28;20214;-96
2022/12/29 01:58:44;;;;;;;9.57;2.67;;;13.60;93.90;;;;;;5105168;28;20202;-96
2022/12/29 02:01:20;;;;;;;7.07;2.53;;;13.60;94.20;;;;;;5085099;28;20211;-95
2022/12/29 02:03:53;;;;;;;6.50;2.23;;;13.60;94.20;;;;;;5085127;28;20215;-96
2022/12/29 02:06:27;;;;;;;8.87;1.67;;;13.60;94.20;;;;;;5093999;28;20347;-95
2022/12/29 02:09:01;;;;;;;5.93;1.90;;;13.60;94.10;;;;;;5088171;28;20204;-94
2022/12/29 02:11:30;;;;;;;6.00;1.90;;;13.60;94.10;;;;;;5097363;28;20203;-94
2022/12/29 02:13:58;;;;;;;10.30;2.13;;;13.60;93.80;;;;;;5082039;28;20210;-95
2022/12/29 02:16:40;;;;;;;6.50;1.83;;;13.70;93.70;;;;;;5079481;28;20375;-96
2022/12/29 02:19:36;;;;;;;9.63;2.20;;;13.70;93.20;;;;;;5084348;28;20197;-95
2022/12/29 02:22:22;;;;;;;8.87;2.07;;;13.70;92.90;;;;;;5068498;28;20663;-95
2022/12/29 02:25:22;;;;;;;9.53;2.57;;;13.70;92.80;;;;;;5086223;28;20205;-95
2022/12/29 02:28:18;;;;;;;7.27;2.30;;;13.70;92.40;;;;;;5091847;28;20208;-94
2022/12/29 02:31:02;;;;;;;8.93;2.37;;;13.80;92.30;;;;;;5079457;28;20223;-95
2022/12/29 02:33:48;;;;;;;9.87;2.33;;;13.70;92.00;;;;;;5081718;28;20292;-94
2022/12/29 02:36:22;;;;;;;8.27;2.57;;;13.70;92.10;;;;;;5082374;28;20236;-96
2022/12/29 02:39:03;;;;;;;8.83;2.13;;;13.70;92.30;;;;;;5083392;28;20215;-95
2022/12/29 02:41:46;;;;;;;9.77;2.70;;;13.70;92.00;;;;;;5094441;28;20549;-96
2022/12/29 02:44:19;;;;;;;9.73;2.57;;;13.70;92.00;;;;;;5083100;28;20214;-95
2022/12/29 02:47:02;;;;;;;7.33;1.80;;;13.70;92.00;;;;;;5079415;28;20210;-95
2022/12/29 02:49:42;;;;;;;8.83;2.23;;;13.70;92.60;;;;;;5081072;28;20561;-96
2022/12/29 02:52:20;;;;;;;5.83;1.57;;;13.70;92.10;;;;;;5084245;28;20206;-93
2022/12/29 02:54:59;;;;;;;8.83;2.80;;;13.60;92.10;;;;;;5092617;28;20228;-96
2022/12/29 03:00:16;;;;;;;6.23;2.03;;;13.60;91.80;;;;;;5087430;28;20205;-94
2022/12/29 03:03:11;;;;;;;8.33;2.03;;;13.60;91.90;;;;;;5079473;28;20203;-96
2022/12/29 03:06:09;;;;;;;8.80;2.47;;;13.50;91.60;;;;;;5079464;28;20219;-93
2022/12/29 03:08:47;;;;;;;6.80;1.83;;;13.50;91.80;;;;;;5077524;28;20220;-93
2022/12/29 03:16:57;;;;;;;4.67;1.60;;;13.40;90.90;;;;;;5079316;28;20258;-96
2022/12/29 03:19:33;;;;;;;10.53;3.67;;;13.40;91.30;;;;;;5061121;28;20653;-96
2022/12/29 03:22:27;;;;;;;9.57;2.30;;;13.40;91.20;;;;;;5085906;28;20881;-96
2022/12/29 03:24:59;;;;;;;9.70;2.50;;;13.40;91.00;;;;;;5076940;28;20709;-96
2022/12/29 03:27:37;;;;;;;15.77;3.93;;;13.30;91.00;;;;;;5076413;28;20214;-95
2022/12/29 03:30:15;;;;;;;12.93;2.97;;;13.30;90.70;;;;;;5077028;28;20277;-96
2022/12/29 03:32:55;;;;;;;13.87;3.37;;;13.30;91.00;;;;;;5077105;28;20252;-95
2022/12/29 03:35:36;;;;;;;10.67;2.83;;;13.30;90.80;;;;;;5076809;28;20213;-95
2022/12/29 03:38:12;;;;;;;5.83;2.23;;;13.30;90.50;;;;;;5090949;28;20327;-96
2022/12/29 03:40:46;;;;;;;13.90;3.00;;;13.30;90.10;;;;;;5076283;28;20213;-96
2022/12/29 03:43:27;;;;;;;15.70;2.77;;;13.30;90.50;;;;;;5080823;28;20219;-93
2022/12/29 03:45:57;;;;;;;11.10;2.53;;;13.30;90.30;;;;;;5094319;28;20221;-94
2022/12/29 03:48:33;;;;;;;13.23;3.13;;;13.30;90.70;;;;;;5075935;28;20272;-96
2022/12/29 03:51:07;;;;;;;14.17;3.10;;;13.30;90.50;;;;;;5078579;28;20204;-96
2022/12/29 03:53:35;;;;;;;15.57;3.77;;;13.30;90.40;;;;;;5093700;28;20638;-96
2022/12/29 03:56:05;;;;;;;20.77;3.53;;;13.30;90.40;;;;;;5089011;28;20669;-94
2022/12/29 03:58:36;;;;;;;10.63;2.73;;;13.30;90.20;;;;;;5078751;28;20930;-96
2022/12/29 04:01:10;;;;;;;10.07;2.90;;;13.30;89.80;;;;;;5105701;28;20205;-96
2022/12/29 04:03:38;;;;;;;10.97;2.83;;;13.30;89.90;;;;;;5089631;28;20206;-95
2022/12/29 04:06:11;;;;;;;13.53;3.27;;;13.30;90.30;;;;;;5091130;28;20281;-96
2022/12/29 04:08:45;;;;;;;13.77;2.90;;;13.30;89.80;;;;;;5083431;28;20208;-95
2022/12/29 04:11:17;;;;;;;6.83;2.17;;;13.30;88.50;;;;;;5094875;28;20208;-96
2022/12/29 04:13:59;;;;;;;14.87;3.37;;;13.30;89.70;;;;;;5091915;28;20634;-96
2022/12/29 04:16:38;;;;;;;11.83;3.07;;;13.40;89.10;;;;;;5074291;28;20208;-96
2022/12/29 04:19:07;;;;;;;10.50;2.57;;;13.30;89.00;;;;;;5080695;28;20891;-94
2022/12/29 04:21:44;;;;;;;12.73;2.47;;;13.30;89.10;;;;;;5075977;28;20206;-96
2022/12/29 04:24:17;;;;;;;12.17;2.50;;;13.30;88.20;;;;;;5076665;28;20287;-96
2022/12/29 04:26:54;;;;;;;13.80;2.67;;;13.40;88.70;;;;;;5093328;28;20219;-96
2022/12/29 04:29:30;;;;;;;8.43;1.77;;;13.40;87.60;;;;;;5079713;28;20235;-96
2022/12/29 04:32:05;;;;;;;10.00;3.00;;;13.30;88.00;;;;;;5079024;28;20204;-96
2022/12/29 04:34:55;;;;;;;11.93;3.13;;;13.30;87.60;;;;;;5079916;28;20292;-96
2022/12/29 04:37:38;;;;;;;13.17;3.37;;;13.40;87.10;;;;;;5076336;28;20822;-94
2022/12/29 04:40:11;;;;;;;14.27;3.07;;;13.30;86.20;;;;;;5063900;28;20206;-96
2022/12/29 04:42:40;;;;;;;12.33;2.87;;;13.30;86.60;;;;;;5074125;28;20216;-94
2022/12/29 04:45:29;;;;;;;13.43;3.30;;;13.30;86.20;;;;;;5076058;28;20267;-95
2022/12/29 04:48:02;;;;;;;15.23;4.13;;;13.30;85.80;;;;;;5080559;28;20210;-96
2022/12/29 04:50:38;;;;;;;13.10;3.27;;;13.30;86.00;;;;;;5096688;28;20675;-96
2022/12/29 04:53:16;;;;;;;10.33;2.67;;;13.30;85.90;;;;;;5077214;28;20230;-96
2022/12/29 04:58:38;;;;;;;9.07;2.60;;;13.30;84.80;;;;;;5096149;28;20213;-95
2022/12/29 05:01:06;;;;;;;11.70;3.23;;;13.20;84.70;;;;;;5098590;28;20647;-96
2022/12/29 05:03:33;;;;;;;13.93;4.03;;;13.30;85.20;;;;;;5088458;28;20210;-93
2022/12/29 05:06:02;;;;;;;16.67;3.57;;;13.30;85.90;;;;;;5080674;28;20679;-95
2022/12/29 05:08:33;;;;;;;10.20;2.47;;;13.30;86.00;;;;;;5092658;28;20221;-96
2022/12/29 05:11:12;;;;;;;7.60;2.40;;;13.30;84.90;;;;;;5079856;28;20217;-94
2022/12/29 05:13:40;;;;;;;14.47;3.03;;;13.30;84.50;;;;;;5078654;28;20213;-96
2022/12/29 05:16:16;;;;;;;8.77;3.00;;;13.30;84.80;;;;;;5087010;28;20266;-96
2022/12/29 05:18:49;;;;;;;12.47;2.67;;;13.30;84.60;;;;;;5090344;28;20285;-96
2022/12/29 05:21:35;;;;;;;9.67;3.13;;;13.20;83.20;;;;;;5094455;28;20209;-96
2022/12/29 05:24:12;;;;;;;11.57;2.80;;;13.30;84.60;;;;;;5109830;28;20255;-96
2022/12/29 05:26:42;;;;;;;10.33;2.43;;;13.30;83.30;;;;;;5093214;28;20217;-96
2022/12/29 05:29:26;;;;;;;10.03;2.30;;;13.20;84.10;;;;;;5098422;28;20213;-96
2022/12/29 05:32:09;;;;;;;6.33;2.10;;;13.30;84.10;;;;;;5113777;28;20194;-96
2022/12/29 05:34:46;;;;;;;11.40;2.50;;;13.30;84.70;;;;;;5108020;28;20205;-95
2022/12/29 05:37:14;;;;;;;9.60;3.07;;;13.30;84.60;;;;;;5104702;28;20227;-96
2022/12/29 05:40:09;;;;;;;15.20;2.60;;;13.30;85.50;;;;;;5098830;28;20202;-96
2022/12/29 05:42:44;;;;;;;10.33;2.77;;;13.30;85.90;;;;;;5093357;28;20216;-96
2022/12/29 05:45:21;;;;;;;10.70;2.73;;;13.30;86.50;;;;;;5097004;28;20578;-96
2022/12/29 05:51:01;;;;;;;6.67;2.33;;;13.20;85.90;;;;;;5080986;28;20221;-96
2022/12/29 05:53:32;;;;;;;12.87;2.60;;;13.20;86.80;;;;;;5101751;28;20216;-94
2022/12/29 05:56:47;;;;;;;10.10;2.70;;;13.20;86.80;;;;;;5100186;28;20202;-96
2022/12/29 05:59:50;;;;;;;16.40;4.33;;;13.20;85.90;;;;;;5098285;28;20229;-96
2022/12/29 06:05:45;;;;;;;12.07;2.97;;;13.30;85.00;;;;;;5101421;28;20191;-96
2022/12/29 06:08:21;;;;;;;15.27;2.70;;;13.20;83.20;;;;;;5088119;28;20618;-96
2022/12/29 06:11:15;;;;;;;18.23;4.70;;;13.20;84.00;;;;;;5090510;28;20208;-96
2022/12/29 06:23:11;;;;;;;18.73;4.50;;;13.20;82.00;;;;;;5096804;28;20210;-93
2022/12/29 06:26:10;;;;;;;21.67;4.33;;;13.20;82.50;;;;;;5074286;28;20207;-96
2022/12/29 06:28:46;;;;;;;11.40;3.30;;;13.20;81.40;;;;;;5074070;28;20227;-96
2022/12/29 06:31:32;;;;;;;12.83;4.00;;;13.20;82.10;;;;;;5086323;28;20257;-96
2022/12/29 06:34:12;;;;;;;11.83;2.97;;;13.20;81.00;;;;;;5082804;28;20229;-96
2022/12/29 06:40:17;;;;;;;16.63;4.33;;;13.20;81.20;;;;;;5070998;28;20207;-96
2022/12/29 06:42:52;;;;;;;16.20;3.17;;;13.10;82.00;;;;;;5083807;28;20667;-96
2022/12/29 06:45:50;;;;;;;12.80;3.23;;;13.10;81.50;;;;;;5064706;28;20215;-96
2022/12/29 06:51:27;;;;;;;11.83;3.00;;;13.10;81.30;;;;;;5085193;28;20249;-96
2022/12/29 06:54:01;;;;;;;12.50;3.10;;;13.10;82.10;;;;;;5086008;28;20200;-96
2022/12/29 06:57:10;;;;;;;13.07;3.50;;;13.10;82.70;;;;;;5084289;28;20207;-96
2022/12/29 06:59:55;;;;;;;16.07;2.80;;;13.00;82.50;;;;;;5065868;28;20268;-96
2022/12/29 07:02:24;;;;;;;8.43;2.80;;;13.00;82.70;;;;;;5085164;28;20199;-96
2022/12/29 07:04:58;;;;;;;16.87;3.60;;;13.10;83.20;;;;;;5078706;28;20209;-96
2022/12/29 07:07:26;;;;;;;8.23;3.00;;;13.00;82.90;;;;;;5085453;28;20209;-93
2022/12/29 07:10:11;;;;;;;14.80;3.97;;;13.00;83.20;;;;;;5089368;28;20239;-96
2022/12/29 07:16:24;;;;;;;16.07;3.33;;;13.00;82.00;;;;;;5074089;28;20203;-96
2022/12/29 07:22:08;;;;;;;12.43;3.27;;;13.10;82.20;;;;;;5067522;28;20238;-96
2022/12/29 07:27:57;;;;;;;13.67;2.80;;;13.10;81.50;;;;;;5087795;28;20188;-96
2022/12/29 07:30:30;;;;;;;17.90;3.53;;;13.10;81.10;;;;;;5086180;28;20200;-96
2022/12/29 07:33:16;;;;;;;14.27;3.40;;;13.10;81.70;;;;;;5080985;28;20212;-95
2022/12/29 07:36:12;;;;;;;16.03;3.30;;;13.10;82.30;;;;;;5079332;28;20237;-96
2022/12/29 07:38:53;;;;;;;9.80;2.17;;;13.10;83.00;;;;;;5069468;28;20297;-95
2022/12/29 07:41:32;;;;;;;9.37;3.13;;;13.10;83.70;;;;;;5073648;28;20217;-94
2022/12/29 07:44:02;;;;;;;13.47;2.83;;;13.10;84.70;;;;;;5071117;28;20616;-96
2022/12/29 07:46:32;;;;;;;11.10;2.67;;;13.10;85.60;;;;;;5076041;28;20217;-94
2022/12/29 07:49:10;;;;;;;14.33;2.80;;;13.00;86.60;;;;;;5062525;28;20205;-95
2022/12/29 07:51:48;;;;;;;18.00;4.40;;;13.00;87.70;;;;;;5075453;28;20209;-96
2022/12/29 07:54:19;;;;;;;17.53;4.83;;;13.00;88.70;;;;;;5084974;28;20258;-94
2022/12/29 07:56:57;;;;;;;15.50;3.70;;;12.90;89.50;;;;;;5081498;28;20225;-95
2022/12/29 07:59:25;;;;;;;14.63;3.47;;;12.80;90.10;;;;;;5085460;28;20232;-93
2022/12/29 08:02:12;;;;;;;16.57;3.47;;;12.80;90.20;;;;;;5078696;28;20706;-95
2022/12/29 08:04:41;;;;;;;14.57;3.67;;;12.70;90.70;;;;;;5061018;28;20228;-93
2022/12/29 08:07:11;;;;;;;15.33;3.63;;;12.70;90.80;;;;;;5076880;28;20252;-94
2022/12/29 08:09:45;;;;;;;11.93;3.57;;;12.60;91.10;;;;;;5073985;28;20570;-94
2022/12/29 08:12:15;;;;;;;19.67;5.53;;;12.60;91.40;;;;;;5086635;28;20192;-93
2022/12/29 08:14:51;;;;;;;9.43;2.77;;;12.60;91.70;;;;;;5084625;28;20213;-93
2022/12/29 08:17:21;;;;;;;15.23;3.03;;;12.60;92.00;;;;;;5081566;28;20204;-95
2022/12/29 08:19:50;;;;;;;12.07;2.67;;;12.50;91.90;;;;;;5082723;28;20313;-94
2022/12/29 08:22:18;;;;;;;11.37;2.60;;;12.50;92.30;;;;;;5081207;28;20231;-94
2022/12/29 08:24:49;;;;;;;8.63;2.40;;;12.40;92.40;;;;;;5079818;28;20269;-95
2022/12/29 08:27:20;;;;;;;12.33;3.43;;;12.40;92.80;;;;;;5074919;28;20300;-94
2022/12/29 08:29:52;;;;;;;10.07;3.03;;;12.40;92.70;;;;;;5060425;28;20677;-95
2022/12/29 08:32:30;;;;;;;12.30;3.73;;;12.40;93.10;;;;;;5074392;28;20204;-96
2022/12/29 08:35:00;;;;;;;13.90;3.93;;;12.40;93.30;;;;;;5081674;28;20215;-96
2022/12/29 08:37:32;;;;;;;12.23;3.67;;;12.40;93.40;;;;;;5076785;28;20233;-94
2022/12/29 08:40:03;;;;;;;19.03;3.90;;;12.40;93.40;;;;;;5078366;28;20556;-95
2022/12/29 08:42:50;;;;;;;7.23;2.47;;;12.40;93.60;;;;;;5066367;28;20228;-95
2022/12/29 08:45:22;;;;;;;9.73;2.40;;;12.40;93.90;;;;;;5065167;28;20213;-95
2022/12/29 08:48:02;;;;;;;11.77;3.13;;;12.40;93.80;;;;;;5069950;28;20216;-95
2022/12/29 08:50:34;;;;;;;13.43;3.07;;;12.40;93.80;;;;;;5081803;28;20201;-95
2022/12/29 08:53:11;;;;;;;17.53;5.33;;;12.40;93.70;;;;;;5080130;28;20211;-94
2022/12/29 08:55:39;;;;;;;10.60;3.03;;;12.40;93.80;;;;;;5083391;28;20195;-95
2022/12/29 08:58:07;;;;;;;18.70;3.87;;;12.40;93.90;;;;;;5080524;28;20855;-96
2022/12/29 09:00:38;;;;;;;16.63;3.97;;;12.40;93.70;;;;;;5082724;28;20204;-94
2022/12/29 09:03:06;;;;;;;16.60;3.33;;;12.50;94.00;;;;;;5071395;28;20200;-96
2022/12/29 09:05:44;;;;;;;18.73;3.87;;;12.50;93.90;;;;;;5079549;28;20213;-96
2022/12/29 09:08:12;;;;;;;17.37;4.03;;;12.50;94.20;;;;;;5072611;28;20212;-95
2022/12/29 09:10:45;;;;;;;15.00;3.93;;;12.50;94.00;;;;;;5068484;28;20195;-96
2022/12/29 09:13:19;;;;;;;21.63;5.40;;;12.60;94.10;;;;;;5078252;28;20208;-95
2022/12/29 09:15:48;;;;;;;12.97;3.47;;;12.60;94.10;;;;;;5077982;28;20204;-96
2022/12/29 09:18:18;;;;;;;19.47;4.37;;;12.60;93.90;;;;;;5077220;28;20306;-96
2022/12/29 09:20:51;;;;;;;20.57;4.73;;;12.60;93.90;;;;;;5075033;28;20239;-95
2022/12/29 09:23:33;;;;;;;20.10;4.50;;;12.70;93.90;;;;;;5075475;28;20682;-96
2022/12/29 09:26:12;;;;;;;16.37;5.20;;;12.70;94.00;;;;;;5069702;28;20212;-96
2022/12/29 09:28:57;;;;;;;14.23;2.97;;;12.70;93.90;;;;;;5079449;28;20231;-96
2022/12/29 09:31:24;;;;;;;19.20;5.03;;;12.70;94.40;;;;;;5074512;28;20283;-94
2022/12/29 09:33:54;;;;;;;18.60;4.57;;;12.70;93.90;;;;;;5077202;28;20209;-96
2022/12/29 09:36:33;;;;;;;15.27;4.93;;;12.80;94.10;;;;;;5085907;28;20211;-96
2022/12/29 09:39:01;;;;;;;19.73;3.90;;;12.80;94.20;;;;;;5088742;28;20232;-95
2022/12/29 09:41:38;;;;;;;17.43;4.47;;;12.80;94.00;;;;;;5072115;28;20208;-96
2022/12/29 09:44:21;;;;;;;18.57;4.63;;;12.90;94.00;;;;;;5077042;28;20209;-96
2022/12/29 09:47:07;;;;;;;14.97;3.53;;;12.90;94.00;;;;;;5077441;28;20199;-96
2022/12/29 09:50:00;;;;;;;18.03;4.10;;;12.90;93.80;;;;;;5078333;28;20203;-96
2022/12/29 09:53:01;;;;;;;14.50;3.93;;;12.90;93.70;;;;;;5079365;28;20299;-96
2022/12/29 09:56:08;;;;;;;14.03;3.07;;;13.00;93.60;;;;;;5074532;28;20579;-96
2022/12/29 09:58:50;;;;;;;12.77;3.53;;;13.00;93.90;;;;;;5061381;28;20310;-96
2022/12/29 10:01:35;;;;;;;14.40;4.50;;;13.00;93.50;;;;;;5066631;28;20212;-96
2022/12/29 10:04:29;;;;;;;16.70;3.67;;;13.00;93.60;;;;;;5077280;28;20649;-96
2022/12/29 10:07:09;;;;;;;20.57;4.43;;;13.10;93.90;;;;;;5066890;28;20218;-96
2022/12/29 10:10:00;;;;;;;18.53;4.67;;;13.00;93.80;;;;;;5078876;28;20288;-95
2022/12/29 10:13:00;;;;;;;14.17;3.37;;;13.10;94.00;;;;;;5060327;28;20224;-95
2022/12/29 10:16:06;;;;;;;12.77;3.53;;;13.10;94.10;;;;;;5071950;28;20205;-96
2022/12/29 10:18:54;;;;;;;13.77;3.97;;;13.10;93.90;;;;;;5077836;28;20320;-96
2022/12/29 10:21:38;;;;;;;19.93;5.07;;;13.10;93.90;;;;;;5068338;28;20860;-96
2022/12/29 10:24:32;;;;;;;;;;;;;;;;;;;;;
2022/12/29 10:27:15;;;;;;;15.93;3.70;;;13.20;93.90;;;;;;5073750;28;20209;-96
2022/12/29 10:29:55;;;;;;;15.07;3.43;;;13.20;94.10;;;;;;5078511;28;20200;-96
2022/12/29 10:32:35;;;;;;;13.00;3.40;;;13.20;93.90;;;;;;5073671;28;20531;-96
2022/12/29 10:35:42;;;;;;;9.90;2.90;;;13.20;93.70;;;;;;5090321;28;20205;-96
2022/12/29 10:38:34;;;;;;;13.67;3.07;;;13.20;93.50;;;;;;5065561;28;20209;-96
2022/12/29 10:48:32;;;;;;;14.70;3.83;;;13.20;93.00;;;;;;5082813;28;20241;-96
2022/12/29 10:51:20;;;;;;;13.43;4.50;;;13.30;93.10;;;;;;5072119;28;20267;-96
2022/12/29 10:57:06;;;;;;;11.33;2.97;;;13.30;92.60;;;;;;5073750;28;20559;-96
2022/12/29 11:00:02;;;;;;;18.47;3.37;;;13.30;92.40;;;;;;5066866;28;20244;-96
2022/12/29 11:03:12;;;;;;;11.07;2.77;;;13.30;92.30;;;;;;5069145;28;20212;-95
2022/12/29 11:06:01;;;;;;;10.53;2.63;;;13.40;92.00;;;;;;5079391;28;20559;-96
2022/12/29 11:08:49;;;;;;;13.80;2.67;;;13.30;91.90;;;;;;5068003;28;20310;-95
2022/12/29 11:14:47;;;;;;;;;;;;;;;;;;;;;
2022/12/29 11:17:18;;;;;;;12.07;2.73;;;13.40;91.60;;;;;;5075587;28;20284;-95
2022/12/29 11:19:48;;;;;;;11.70;2.90;;;13.40;91.60;;;;;;5075115;28;20236;-95
2022/12/29 11:22:26;;;;;;;7.40;2.73;;;13.40;91.70;;;;;;5076351;28;20231;-96
2022/12/29 11:25:06;;;;;;;11.43;3.00;;;13.30;91.80;;;;;;5062149;28;20205;-94
2022/12/29 11:27:39;;;;;;;9.20;2.33;;;13.30;91.80;;;;;;5076116;28;20253;-95
2022/12/29 11:33:22;;;;;;;9.83;2.03;;;13.20;91.70;;;;;;5030560;28;20276;-95
2022/12/29 11:35:57;;;;;;;14.73;3.20;;;13.10;91.80;;;;;;5075357;28;20717;-95
2022/12/29 11:38:55;;;;;;;6.47;1.70;;;13.10;92.00;;;;;;5053907;28;20230;-96
2022/12/29 11:41:35;;;;;;;10.17;2.80;;;13.10;92.20;;;;;;5077024;28;21225;-94
2022/12/29 11:44:15;;;;;;;10.20;2.03;;;13.00;92.30;;;;;;5079554;28;20214;-96
2022/12/29 11:47:04;;;;;;;8.40;2.60;;;13.00;92.20;;;;;;5079990;28;20314;-96
2022/12/29 11:49:42;;;;;;;12.23;2.97;;;13.00;92.00;;;;;;5074547;28;20621;-96
2022/12/29 11:52:22;;;;;;;6.10;1.93;;;13.00;92.00;;;;;;5074939;28;20194;-96
2022/12/29 11:55:00;;;;;;;7.70;2.00;;;13.00;92.10;;;;;;5046520;28;20196;-95
2022/12/29 11:57:28;;;;;;;19.53;4.10;;;13.00;92.30;;;;;;5072133;28;20212;-95
2022/12/29 11:59:59;;;;;;;13.37;2.90;;;13.00;92.40;;;;;;5076400;28;20864;-96
2022/12/29 12:03:16;;;;;;;12.70;3.70;;;13.00;92.70;;;;;;5069437;28;20841;-95
2022/12/29 12:06:05;;;;;;;10.87;3.40;;;13.10;92.80;;;;;;5058315;28;20237;-96
2022/12/29 12:09:01;;;;;;;11.87;2.50;;;13.00;92.90;;;;;;5069672;28;20210;-96
2022/12/29 12:11:45;;;;;;;12.53;3.20;;;13.10;92.70;;;;;;5077325;28;20212;-96
2022/12/29 12:14:33;;;;;;;10.43;2.40;;;13.10;92.10;;;;;;5070127;28;20205;-96
2022/12/29 12:17:11;;;;;;;5.13;2.00;;;13.10;92.20;;;;;;5068328;28;20207;-96
2022/12/29 12:19:47;;;;;;;11.20;2.47;;;13.20;92.00;;;;;;5079241;28;20247;-96
2022/12/29 12:22:28;;;;;;;9.40;2.70;;;13.20;91.90;;;;;;5081270;28;20244;-96
2022/12/29 12:25:15;;;;;;;10.40;3.40;;;13.20;91.60;;;;;;5047175;28;20284;-96
2022/12/29 12:27:57;;;;;;;10.53;2.93;;;13.20;91.40;;;;;;5088076;28;20659;-96
2022/12/29 12:30:38;;;;;;;10.97;2.57;;;13.20;91.60;;;;;;5074204;28;20605;-96
2022/12/29 12:33:28;;;;;;;7.13;2.63;;;13.20;91.40;;;;;;5079773;28;20215;-96
2022/12/29 12:36:21;;;;;;;14.63;3.43;;;13.20;91.40;;;;;;5079703;28;20279;-96
2022/12/29 12:42:05;;;;;;;11.07;3.37;;;13.20;91.10;;;;;;5062367;28;20220;-96
2022/12/29 12:44:46;;;;;;;11.53;2.17;;;13.20;91.00;;;;;;5061156;28;20205;-96
2022/12/29 12:47:49;;;;;;;5.00;2.07;;;13.20;91.10;;;;;;5070718;28;20271;-96
2022/12/29 12:50:47;;;;;;;9.33;2.17;;;13.20;91.20;;;;;;5080948;28;20299;-96
2022/12/29 12:54:09;;;;;;;10.33;2.83;;;13.20;91.20;;;;;;5079978;28;20264;-96
2022/12/29 12:57:21;;;;;;;8.27;2.17;;;13.20;91.00;;;;;;5070122;28;20225;-96
2022/12/29 13:00:12;;;;;;;7.27;2.30;;;13.20;91.00;;;;;;5060991;28;20443;-96
2022/12/29 13:02:52;;;;;;;10.70;2.40;;;13.20;90.90;;;;;;5077560;28;20587;-96
2022/12/29 13:06:02;;;;;;;6.13;1.80;;;13.10;90.30;;;;;;5072241;28;20218;-96
2022/12/29 13:12:23;;;;;;;9.30;2.20;;;13.10;90.30;;;;;;5080467;28;20224;-96
2022/12/29 13:15:28;;;;;;;5.57;1.70;;;13.10;90.40;;;;;;5068343;28;20193;-96
2022/12/29 13:18:04;;;;;;;8.70;2.37;;;13.00;90.10;;;;;;5072685;28;20213;-96
2022/12/29 13:23:42;;;;;;;10.03;2.43;;;13.00;87.30;;;;;;5074260;28;20264;-94
2022/12/29 13:26:21;;;;;;;7.40;2.00;;;12.90;87.00;;;;;;5084525;28;20234;-94
2022/12/29 13:29:48;;;;;;;50.90;14.23;;;12.90;86.40;;;;;;5164659;22;20252;-96
2022/12/29 13:32:53;;;;;;;7.90;1.47;;;12.90;85.30;;;;;;5088214;28;20189;-96
2022/12/29 13:44:18;;;;;;;10.03;2.60;;;12.80;87.00;;;;;;5090007;28;20212;-96
2022/12/29 13:47:38;;;;;;;;;;;;;;;;;;;;;
2022/12/29 13:50:36;;;;;;;9.00;2.90;;;12.70;87.00;;;;;;5084312;28;20203;-96
2022/12/29 13:53:31;;;;;;;13.17;3.90;;;12.70;86.90;;;;;;5076279;28;20230;-96
2022/12/29 14:05:36;;;;;;;9.27;2.70;;;12.50;88.40;;;;;;5056943;28;20650;-96
2022/12/29 14:08:16;;;;;;;6.63;1.97;;;12.50;88.20;;;;;;5065945;28;20283;-95
2022/12/29 14:11:16;;;;;;;6.50;2.03;;;12.50;89.00;;;;;;5082655;28;20211;-96
2022/12/29 14:13:51;;;;;;;8.90;2.27;;;12.40;89.70;;;;;;5077856;28;20273;-94
2022/12/29 14:16:43;;;;;;;7.20;2.00;;;12.40;88.60;;;;;;5063782;28;20679;-96
2022/12/29 14:19:33;;;;;;;9.73;2.87;;;12.30;88.30;;;;;;5076610;28;20230;-96
2022/12/29 14:25:57;;;;;;;8.00;2.33;;;12.30;87.50;;;;;;5047504;28;20206;-96
2022/12/29 14:28:39;;;;;;;7.83;2.30;;;12.20;87.30;;;;;;5058601;28;20199;-96
2022/12/29 14:31:55;;;;;;;6.70;2.03;;;12.20;86.90;;;;;;5065271;28;20247;-96
2022/12/29 14:38:17;;;;;;;10.37;2.73;;;12.10;85.40;;;;;;5047603;28;20231;-96
2022/12/29 14:41:17;;;;;;;5.07;2.13;;;12.10;86.10;;;;;;5056892;28;20226;-96
2022/12/29 15:15:06;;;;;;;9.70;2.60;;;11.90;87.10;;;;;;5428661;22;20243;-96
2022/12/29 15:21:27;;;;;;;10.30;3.10;;;11.90;86.20;;;;;;5042294;28;20250;-96
2022/12/29 15:28:13;;;;;;;9.40;2.23;;;11.90;86.70;;;;;;5050986;28;20215;-96
2022/12/29 15:34:14;;;;;;;10.83;2.57;;;11.80;87.00;;;;;;5065590;28;20195;-96
2022/12/29 15:40:20;;;;;;;;;;;;;;;;;;;;;
2022/12/29 15:43:23;;;;;;;9.97;2.60;;;11.80;85.60;;;;;;5068419;28;20204;-96
2022/12/29 15:46:42;;;;;;;;;;;;;;;;;;;;;
2022/12/29 15:52:48;;;;;;;14.17;2.70;;;11.70;86.00;;;;;;5067399;28;20209;-96
2022/12/29 15:55:52;;;;;;;11.47;2.87;;;11.70;86.10;;;;;;5057879;28;20211;-96
2022/12/29 16:09:42;;;;;;;14.97;3.20;;;11.60;86.00;;;;;;5071064;28;20219;-96
2022/12/29 18:13:05;;;;;;;13.70;3.67;;;11.20;90.20;;;;;;4874205;29;20323;-96
2022/12/29 18:39:11;;;;;;;15.67;3.63;;;11.20;90.00;;;;;;5019147;28;20236;-96
2022/12/29 18:45:07;;;;;;;64.83;16.57;;;11.20;89.80;;;;;;5837717;23;20213;-96
2022/12/29 20:29:51;;;;;;;12.97;4.27;;;10.70;88.70;;;;;;4970772;28;20202;-96
